sensor_id;sensor_type;location;lat;lon;timestamp;temperature;humidity
16384;DHT22;8301;51.440;6.610;2023-07-16T00:00:29;18.20;99.90
16384;DHT22;8301;51.440;6.610;2023-07-16T00:02:56;18.10;99.90
16384;DHT22;8301;51.440;6.610;2023-07-16T00:05:23;18.20;99.90
16384;DHT22;8301;51.440;6.610;2023-07-16T00:07:49;18.10;99.90
16384;DHT22;8301;51.440;6.610;2023-07-16T00:10:16;18.10;99.90
16384;DHT22;8301;51.440;6.610;2023-07-16T00:12:43;18.10;99.90
16384;DHT22;8301;51.440;6.610;2023-07-16T00:15:10;18.10;99.90
16384;DHT22;8301;51.440;6.610;2023-07-16T00:17:37;18.10;99.90
16384;DHT22;8301;51.440;6.610;2023-07-16T00:20:04;18.00;99.90
16384;DHT22;8301;51.440;6.610;2023-07-16T00:22:31;18.00;99.90
16384;DHT22;8301;51.440;6.610;2023-07-16T00:24:58;18.00;99.90
16384;DHT22;8301;51.440;6.610;2023-07-16T00:27:25;18.00;99.90
16384;DHT22;8301;51.440;6.610;2023-07-16T00:29:52;18.00;99.90
16384;DHT22;8301;51.440;6.610;2023-07-16T00:32:19;18.10;99.90
16384;DHT22;8301;51.440;6.610;2023-07-16T00:34:45;18.00;99.90
16384;DHT22;8301;51.440;6.610;2023-07-16T00:37:12;18.00;99.90
16384;DHT22;8301;51.440;6.610;2023-07-16T00:39:39;18.00;99.90
16384;DHT22;8301;51.440;6.610;2023-07-16T00:42:06;18.00;99.90
16384;DHT22;8301;51.440;6.610;2023-07-16T00:44:33;18.00;99.90
16384;DHT22;8301;51.440;6.610;2023-07-16T00:46:59;17.90;99.90
16384;DHT22;8301;51.440;6.610;2023-07-16T00:49:27;18.00;99.90
16384;DHT22;8301;51.440;6.610;2023-07-16T00:51:55;18.00;99.90
16384;DHT22;8301;51.440;6.610;2023-07-16T00:54:22;18.00;99.90
16384;DHT22;8301;51.440;6.610;2023-07-16T00:56:49;18.10;99.90
16384;DHT22;8301;51.440;6.610;2023-07-16T00:59:15;18.10;99.90
16384;DHT22;8301;51.440;6.610;2023-07-16T01:01:42;18.10;99.90
16384;DHT22;8301;51.440;6.610;2023-07-16T01:04:09;18.10;99.90
16384;DHT22;8301;51.440;6.610;2023-07-16T01:06:47;18.00;99.90
16384;DHT22;8301;51.440;6.610;2023-07-16T01:09:17;18.00;99.90
16384;DHT22;8301;51.440;6.610;2023-07-16T01:11:45;18.00;99.90
16384;DHT22;8301;51.440;6.610;2023-07-16T01:14:17;17.90;99.90
16384;DHT22;8301;51.440;6.610;2023-07-16T01:16:40;17.90;99.90
16384;DHT22;8301;51.440;6.610;2023-07-16T01:19:08;17.80;99.90
16384;DHT22;8301;51.440;6.610;2023-07-16T01:24:27;17.60;99.90
16384;DHT22;8301;51.440;6.610;2023-07-16T01:32:04;17.40;99.90
16384;DHT22;8301;51.440;6.610;2023-07-16T01:34:33;17.40;99.90
16384;DHT22;8301;51.440;6.610;2023-07-16T01:37:01;17.40;99.90
16384;DHT22;8301;51.440;6.610;2023-07-16T01:39:28;17.40;99.90
16384;DHT22;8301;51.440;6.610;2023-07-16T01:41:54;17.30;99.90
16384;DHT22;8301;51.440;6.610;2023-07-16T01:44:21;17.30;99.90
16384;DHT22;8301;51.440;6.610;2023-07-16T01:46:49;17.20;99.90
16384;DHT22;8301;51.440;6.610;2023-07-16T01:49:16;17.10;99.90
16384;DHT22;8301;51.440;6.610;2023-07-16T01:51:43;17.10;99.90
16384;DHT22;8301;51.440;6.610;2023-07-16T01:54:10;17.20;99.90
16384;DHT22;8301;51.440;6.610;2023-07-16T01:56:37;17.20;99.90
16384;DHT22;8301;51.440;6.610;2023-07-16T01:59:04;17.10;99.90
16384;DHT22;8301;51.440;6.610;2023-07-16T02:01:30;17.10;99.90
16384;DHT22;8301;51.440;6.610;2023-07-16T02:03:57;17.10;99.90
16384;DHT22;8301;51.440;6.610;2023-07-16T02:06:26;17.00;99.90
16384;DHT22;8301;51.440;6.610;2023-07-16T02:08:54;17.00;99.90
16384;DHT22;8301;51.440;6.610;2023-07-16T02:11:20;17.00;99.90
16384;DHT22;8301;51.440;6.610;2023-07-16T02:13:47;17.00;99.90
16384;DHT22;8301;51.440;6.610;2023-07-16T02:16:14;17.00;99.90
16384;DHT22;8301;51.440;6.610;2023-07-16T02:18:41;17.00;99.90
16384;DHT22;8301;51.440;6.610;2023-07-16T02:21:08;17.00;99.90
16384;DHT22;8301;51.440;6.610;2023-07-16T02:23:35;17.00;99.90
16384;DHT22;8301;51.440;6.610;2023-07-16T02:26:02;17.00;99.90
16384;DHT22;8301;51.440;6.610;2023-07-16T02:28:29;17.00;99.90
16384;DHT22;8301;51.440;6.610;2023-07-16T02:30:55;17.00;99.90
16384;DHT22;8301;51.440;6.610;2023-07-16T02:33:22;17.00;99.90
16384;DHT22;8301;51.440;6.610;2023-07-16T02:35:49;17.00;99.90
16384;DHT22;8301;51.440;6.610;2023-07-16T02:38:17;16.90;99.90
16384;DHT22;8301;51.440;6.610;2023-07-16T02:40:44;16.90;99.90
16384;DHT22;8301;51.440;6.610;2023-07-16T02:43:12;16.90;99.90
16384;DHT22;8301;51.440;6.610;2023-07-16T02:45:39;16.90;99.90
16384;DHT22;8301;51.440;6.610;2023-07-16T02:48:06;16.90;99.90
16384;DHT22;8301;51.440;6.610;2023-07-16T02:50:36;16.90;99.90
16384;DHT22;8301;51.440;6.610;2023-07-16T02:53:03;16.90;99.90
16384;DHT22;8301;51.440;6.610;2023-07-16T02:55:30;16.90;99.90
16384;DHT22;8301;51.440;6.610;2023-07-16T02:57:57;16.80;99.90
16384;DHT22;8301;51.440;6.610;2023-07-16T03:00:24;16.90;99.90
16384;DHT22;8301;51.440;6.610;2023-07-16T03:02:51;16.80;99.90
16384;DHT22;8301;51.440;6.610;2023-07-16T03:05:17;16.80;99.90
16384;DHT22;8301;51.440;6.610;2023-07-16T03:07:44;16.70;99.90
16384;DHT22;8301;51.440;6.610;2023-07-16T03:10:11;16.80;99.90
16384;DHT22;8301;51.440;6.610;2023-07-16T03:12:38;16.70;99.90
16384;DHT22;8301;51.440;6.610;2023-07-16T03:15:05;16.70;99.90
16384;DHT22;8301;51.440;6.610;2023-07-16T03:17:32;16.70;99.90
16384;DHT22;8301;51.440;6.610;2023-07-16T03:19:59;16.70;99.90
16384;DHT22;8301;51.440;6.610;2023-07-16T03:22:25;16.70;99.90
16384;DHT22;8301;51.440;6.610;2023-07-16T03:24:52;16.70;99.90
16384;DHT22;8301;51.440;6.610;2023-07-16T03:27:19;16.70;99.90
16384;DHT22;8301;51.440;6.610;2023-07-16T03:29:46;16.60;99.90
16384;DHT22;8301;51.440;6.610;2023-07-16T03:32:13;16.60;99.90
16384;DHT22;8301;51.440;6.610;2023-07-16T03:34:40;16.60;99.90
16384;DHT22;8301;51.440;6.610;2023-07-16T03:37:06;16.60;99.90
16384;DHT22;8301;51.440;6.610;2023-07-16T03:39:33;16.60;99.90
16384;DHT22;8301;51.440;6.610;2023-07-16T03:42:00;16.60;99.90
16384;DHT22;8301;51.440;6.610;2023-07-16T03:44:27;16.60;99.90
16384;DHT22;8301;51.440;6.610;2023-07-16T03:46:53;16.60;99.90
16384;DHT22;8301;51.440;6.610;2023-07-16T03:49:20;16.50;99.90
16384;DHT22;8301;51.440;6.610;2023-07-16T03:51:47;16.50;99.90
16384;DHT22;8301;51.440;6.610;2023-07-16T03:54:14;16.40;99.90
16384;DHT22;8301;51.440;6.610;2023-07-16T03:56:41;16.40;99.90
16384;DHT22;8301;51.440;6.610;2023-07-16T03:59:07;16.40;99.90
16384;DHT22;8301;51.440;6.610;2023-07-16T04:01:34;16.50;99.90
16384;DHT22;8301;51.440;6.610;2023-07-16T04:04:01;16.40;99.90
16384;DHT22;8301;51.440;6.610;2023-07-16T04:06:28;16.40;99.90
16384;DHT22;8301;51.440;6.610;2023-07-16T04:08:55;16.40;99.90
16384;DHT22;8301;51.440;6.610;2023-07-16T04:11:21;16.40;99.90
16384;DHT22;8301;51.440;6.610;2023-07-16T04:13:48;16.30;99.90
16384;DHT22;8301;51.440;6.610;2023-07-16T04:16:15;16.20;99.90
16384;DHT22;8301;51.440;6.610;2023-07-16T04:18:42;16.30;99.90
16384;DHT22;8301;51.440;6.610;2023-07-16T04:21:09;16.40;1.00
16384;DHT22;8301;51.440;6.610;2023-07-16T04:23:35;16.30;1.00
16384;DHT22;8301;51.440;6.610;2023-07-16T04:26:02;16.40;99.90
16384;DHT22;8301;51.440;6.610;2023-07-16T04:30:56;16.40;99.90
16384;DHT22;8301;51.440;6.610;2023-07-16T04:33:22;16.40;1.00
16384;DHT22;8301;51.440;6.610;2023-07-16T04:35:49;16.40;1.00
16384;DHT22;8301;51.440;6.610;2023-07-16T04:38:16;16.40;1.00
16384;DHT22;8301;51.440;6.610;2023-07-16T04:40:43;16.40;99.90
16384;DHT22;8301;51.440;6.610;2023-07-16T04:43:10;16.40;99.90
16384;DHT22;8301;51.440;6.610;2023-07-16T04:45:36;16.40;99.90
16384;DHT22;8301;51.440;6.610;2023-07-16T04:48:05;16.40;1.00
16384;DHT22;8301;51.440;6.610;2023-07-16T04:50:32;16.50;1.00
16384;DHT22;8301;51.440;6.610;2023-07-16T04:52:58;16.50;94.80
16384;DHT22;8301;51.440;6.610;2023-07-16T04:55:25;16.60;86.70
16384;DHT22;8301;51.440;6.610;2023-07-16T04:57:52;16.60;1.00
16384;DHT22;8301;51.440;6.610;2023-07-16T05:00:19;16.70;1.00
16384;DHT22;8301;51.440;6.610;2023-07-16T05:02:46;16.80;1.00
16384;DHT22;8301;51.440;6.610;2023-07-16T05:05:13;16.80;1.00
16384;DHT22;8301;51.440;6.610;2023-07-16T05:07:39;16.90;1.00
16384;DHT22;8301;51.440;6.610;2023-07-16T05:10:06;17.00;1.00
16384;DHT22;8301;51.440;6.610;2023-07-16T05:12:33;17.10;1.00
16384;DHT22;8301;51.440;6.610;2023-07-16T05:15:00;17.30;1.00
16384;DHT22;8301;51.440;6.610;2023-07-16T05:17:27;17.40;1.00
16384;DHT22;8301;51.440;6.610;2023-07-16T05:22:24;17.70;1.00
16384;DHT22;8301;51.440;6.610;2023-07-16T05:24:51;17.90;99.90
16384;DHT22;8301;51.440;6.610;2023-07-16T05:27:18;17.80;99.90
16384;DHT22;8301;51.440;6.610;2023-07-16T05:29:44;17.90;1.00
16384;DHT22;8301;51.440;6.610;2023-07-16T05:32:11;18.00;1.00
16384;DHT22;8301;51.440;6.610;2023-07-16T05:34:41;17.90;1.00
16384;DHT22;8301;51.440;6.610;2023-07-16T05:37:08;18.10;1.00
16384;DHT22;8301;51.440;6.610;2023-07-16T05:39:35;18.30;1.00
16384;DHT22;8301;51.440;6.610;2023-07-16T05:42:02;18.40;1.00
16384;DHT22;8301;51.440;6.610;2023-07-16T05:44:28;18.30;1.00
16384;DHT22;8301;51.440;6.610;2023-07-16T05:46:56;18.30;1.00
16384;DHT22;8301;51.440;6.610;2023-07-16T05:49:23;18.40;99.90
16384;DHT22;8301;51.440;6.610;2023-07-16T05:51:51;18.60;99.90
16384;DHT22;8301;51.440;6.610;2023-07-16T05:54:19;18.60;99.90
16384;DHT22;8301;51.440;6.610;2023-07-16T05:56:46;18.50;99.90
16384;DHT22;8301;51.440;6.610;2023-07-16T05:59:13;18.50;99.90
16384;DHT22;8301;51.440;6.610;2023-07-16T06:01:40;18.50;99.90
16384;DHT22;8301;51.440;6.610;2023-07-16T06:04:07;18.50;99.90
16384;DHT22;8301;51.440;6.610;2023-07-16T06:06:34;18.50;67.10
16384;DHT22;8301;51.440;6.610;2023-07-16T06:09:01;18.50;70.70
16384;DHT22;8301;51.440;6.610;2023-07-16T06:11:28;18.70;89.00
16384;DHT22;8301;51.440;6.610;2023-07-16T06:13:55;18.60;65.70
16384;DHT22;8301;51.440;6.610;2023-07-16T06:16:21;18.60;1.00
16384;DHT22;8301;51.440;6.610;2023-07-16T06:18:51;18.80;1.00
16384;DHT22;8301;51.440;6.610;2023-07-16T06:21:18;18.70;1.00
16384;DHT22;8301;51.440;6.610;2023-07-16T06:23:45;18.80;1.00
16384;DHT22;8301;51.440;6.610;2023-07-16T06:26:12;18.80;1.00
16384;DHT22;8301;51.440;6.610;2023-07-16T06:28:39;18.80;1.00
16384;DHT22;8301;51.440;6.610;2023-07-16T06:31:05;18.70;1.00
16384;DHT22;8301;51.440;6.610;2023-07-16T06:33:32;18.70;1.00
16384;DHT22;8301;51.440;6.610;2023-07-16T06:35:59;18.70;1.00
16384;DHT22;8301;51.440;6.610;2023-07-16T06:38:26;18.80;1.00
16384;DHT22;8301;51.440;6.610;2023-07-16T06:40:53;18.90;1.00
16384;DHT22;8301;51.440;6.610;2023-07-16T06:43:20;18.80;1.00
16384;DHT22;8301;51.440;6.610;2023-07-16T06:45:48;18.80;1.00
16384;DHT22;8301;51.440;6.610;2023-07-16T06:48:16;18.90;1.00
16384;DHT22;8301;51.440;6.610;2023-07-16T06:50:44;18.90;1.00
16384;DHT22;8301;51.440;6.610;2023-07-16T06:53:11;19.10;1.00
16384;DHT22;8301;51.440;6.610;2023-07-16T06:55:38;19.10;1.00
16384;DHT22;8301;51.440;6.610;2023-07-16T06:58:04;19.00;1.00
16384;DHT22;8301;51.440;6.610;2023-07-16T07:00:31;18.90;1.00
16384;DHT22;8301;51.440;6.610;2023-07-16T07:02:58;19.10;1.00
16384;DHT22;8301;51.440;6.610;2023-07-16T07:05:25;19.30;1.00
16384;DHT22;8301;51.440;6.610;2023-07-16T07:07:52;19.20;1.00
16384;DHT22;8301;51.440;6.610;2023-07-16T07:10:20;19.30;1.00
16384;DHT22;8301;51.440;6.610;2023-07-16T07:12:47;19.50;1.00
16384;DHT22;8301;51.440;6.610;2023-07-16T07:15:13;19.60;1.00
16384;DHT22;8301;51.440;6.610;2023-07-16T07:17:40;19.80;1.00
16384;DHT22;8301;51.440;6.610;2023-07-16T07:20:08;19.70;1.00
16384;DHT22;8301;51.440;6.610;2023-07-16T07:22:35;19.50;1.00
16384;DHT22;8301;51.440;6.610;2023-07-16T07:25:02;19.20;1.00
16384;DHT22;8301;51.440;6.610;2023-07-16T07:27:29;19.00;1.00
16384;DHT22;8301;51.440;6.610;2023-07-16T07:29:56;19.20;1.00
16384;DHT22;8301;51.440;6.610;2023-07-16T07:32:22;19.40;1.00
16384;DHT22;8301;51.440;6.610;2023-07-16T07:34:50;19.50;1.00
16384;DHT22;8301;51.440;6.610;2023-07-16T07:37:17;19.40;1.00
16384;DHT22;8301;51.440;6.610;2023-07-16T07:39:44;19.50;1.00
16384;DHT22;8301;51.440;6.610;2023-07-16T07:42:12;19.40;1.00
16384;DHT22;8301;51.440;6.610;2023-07-16T07:44:39;19.40;1.00
16384;DHT22;8301;51.440;6.610;2023-07-16T07:47:07;19.70;1.00
16384;DHT22;8301;51.440;6.610;2023-07-16T07:49:34;19.50;1.00
16384;DHT22;8301;51.440;6.610;2023-07-16T07:52:01;19.40;1.00
16384;DHT22;8301;51.440;6.610;2023-07-16T07:54:27;19.40;1.00
16384;DHT22;8301;51.440;6.610;2023-07-16T07:56:54;19.50;1.00
16384;DHT22;8301;51.440;6.610;2023-07-16T07:59:21;19.60;1.00
16384;DHT22;8301;51.440;6.610;2023-07-16T08:01:54;19.60;1.00
16384;DHT22;8301;51.440;6.610;2023-07-16T08:04:21;19.60;1.00
16384;DHT22;8301;51.440;6.610;2023-07-16T08:06:49;19.70;1.00
16384;DHT22;8301;51.440;6.610;2023-07-16T08:09:16;19.80;1.00
16384;DHT22;8301;51.440;6.610;2023-07-16T08:11:43;19.80;1.00
16384;DHT22;8301;51.440;6.610;2023-07-16T08:14:10;19.70;1.00
16384;DHT22;8301;51.440;6.610;2023-07-16T08:16:37;19.70;1.00
16384;DHT22;8301;51.440;6.610;2023-07-16T08:19:04;19.90;1.00
16384;DHT22;8301;51.440;6.610;2023-07-16T08:21:31;20.00;1.00
16384;DHT22;8301;51.440;6.610;2023-07-16T08:23:58;19.90;1.00
16384;DHT22;8301;51.440;6.610;2023-07-16T08:26:30;20.10;1.00
16384;DHT22;8301;51.440;6.610;2023-07-16T08:28:57;19.90;1.00
16384;DHT22;8301;51.440;6.610;2023-07-16T08:31:25;20.20;1.00
16384;DHT22;8301;51.440;6.610;2023-07-16T08:33:52;20.30;1.00
16384;DHT22;8301;51.440;6.610;2023-07-16T08:36:18;20.30;1.00
16384;DHT22;8301;51.440;6.610;2023-07-16T08:38:45;20.70;1.00
16384;DHT22;8301;51.440;6.610;2023-07-16T08:41:12;20.60;1.00
16384;DHT22;8301;51.440;6.610;2023-07-16T08:43:39;20.90;1.00
16384;DHT22;8301;51.440;6.610;2023-07-16T08:46:06;21.10;1.00
16384;DHT22;8301;51.440;6.610;2023-07-16T08:48:33;21.50;1.00
16384;DHT22;8301;51.440;6.610;2023-07-16T08:51:02;21.40;1.00
16384;DHT22;8301;51.440;6.610;2023-07-16T08:53:29;21.20;1.00
16384;DHT22;8301;51.440;6.610;2023-07-16T08:55:56;21.40;1.00
16384;DHT22;8301;51.440;6.610;2023-07-16T08:58:23;21.10;1.00
16384;DHT22;8301;51.440;6.610;2023-07-16T09:00:51;21.50;1.00
16384;DHT22;8301;51.440;6.610;2023-07-16T09:03:20;21.70;1.00
16384;DHT22;8301;51.440;6.610;2023-07-16T09:05:49;21.60;1.00
16384;DHT22;8301;51.440;6.610;2023-07-16T09:10:52;21.00;1.00
16384;DHT22;8301;51.440;6.610;2023-07-16T09:13:17;21.00;1.00
16384;DHT22;8301;51.440;6.610;2023-07-16T09:15:42;21.10;1.00
16384;DHT22;8301;51.440;6.610;2023-07-16T09:18:11;21.00;1.00
16384;DHT22;8301;51.440;6.610;2023-07-16T09:20:39;21.00;1.00
16384;DHT22;8301;51.440;6.610;2023-07-16T09:23:15;20.80;1.00
16384;DHT22;8301;51.440;6.610;2023-07-16T09:25:43;21.00;1.00
16384;DHT22;8301;51.440;6.610;2023-07-16T09:28:10;21.20;1.00
16384;DHT22;8301;51.440;6.610;2023-07-16T09:30:36;21.30;1.00
16384;DHT22;8301;51.440;6.610;2023-07-16T09:33:14;21.30;1.00
16384;DHT22;8301;51.440;6.610;2023-07-16T09:35:38;21.30;1.00
16384;DHT22;8301;51.440;6.610;2023-07-16T09:38:07;21.50;1.00
16384;DHT22;8301;51.440;6.610;2023-07-16T09:40:37;21.40;1.00
16384;DHT22;8301;51.440;6.610;2023-07-16T09:43:05;21.10;1.00
16384;DHT22;8301;51.440;6.610;2023-07-16T09:45:32;21.20;1.00
16384;DHT22;8301;51.440;6.610;2023-07-16T09:47:59;21.60;1.00
16384;DHT22;8301;51.440;6.610;2023-07-16T09:50:27;21.50;1.00
16384;DHT22;8301;51.440;6.610;2023-07-16T09:52:56;21.50;1.00
16384;DHT22;8301;51.440;6.610;2023-07-16T09:55:24;22.00;1.00
16384;DHT22;8301;51.440;6.610;2023-07-16T09:57:52;22.40;1.00
16384;DHT22;8301;51.440;6.610;2023-07-16T10:00:19;22.50;1.00
16384;DHT22;8301;51.440;6.610;2023-07-16T10:02:47;22.60;1.00
16384;DHT22;8301;51.440;6.610;2023-07-16T10:05:23;22.40;1.00
16384;DHT22;8301;51.440;6.610;2023-07-16T10:07:52;22.80;1.00
16384;DHT22;8301;51.440;6.610;2023-07-16T10:10:19;22.80;1.00
16384;DHT22;8301;51.440;6.610;2023-07-16T10:12:56;22.70;1.00
16384;DHT22;8301;51.440;6.610;2023-07-16T10:15:26;22.70;1.00
16384;DHT22;8301;51.440;6.610;2023-07-16T10:17:54;22.70;1.00
16384;DHT22;8301;51.440;6.610;2023-07-16T10:20:27;22.30;1.00
16384;DHT22;8301;51.440;6.610;2023-07-16T10:22:54;22.10;1.00
16384;DHT22;8301;51.440;6.610;2023-07-16T10:25:22;21.70;1.00
16384;DHT22;8301;51.440;6.610;2023-07-16T10:27:51;21.60;1.00
16384;DHT22;8301;51.440;6.610;2023-07-16T10:30:18;21.90;1.00
16384;DHT22;8301;51.440;6.610;2023-07-16T10:32:45;21.90;1.00
16384;DHT22;8301;51.440;6.610;2023-07-16T10:35:12;21.90;1.00
16384;DHT22;8301;51.440;6.610;2023-07-16T10:37:39;21.90;1.00
16384;DHT22;8301;51.440;6.610;2023-07-16T10:40:10;21.80;1.00
16384;DHT22;8301;51.440;6.610;2023-07-16T10:42:37;21.50;1.00
16384;DHT22;8301;51.440;6.610;2023-07-16T10:45:07;21.60;1.00
16384;DHT22;8301;51.440;6.610;2023-07-16T10:47:36;21.90;1.00
16384;DHT22;8301;51.440;6.610;2023-07-16T10:50:04;21.90;1.00
16384;DHT22;8301;51.440;6.610;2023-07-16T10:52:31;22.10;1.00
16384;DHT22;8301;51.440;6.610;2023-07-16T10:54:58;21.70;1.00
16384;DHT22;8301;51.440;6.610;2023-07-16T10:57:24;21.40;1.00
16384;DHT22;8301;51.440;6.610;2023-07-16T10:59:52;21.60;1.00
16384;DHT22;8301;51.440;6.610;2023-07-16T11:02:20;21.80;1.00
16384;DHT22;8301;51.440;6.610;2023-07-16T11:04:49;21.60;1.00
16384;DHT22;8301;51.440;6.610;2023-07-16T11:07:16;21.50;1.00
16384;DHT22;8301;51.440;6.610;2023-07-16T11:09:43;21.50;1.00
16384;DHT22;8301;51.440;6.610;2023-07-16T11:12:11;21.60;1.00
16384;DHT22;8301;51.440;6.610;2023-07-16T11:14:48;21.70;1.00
16384;DHT22;8301;51.440;6.610;2023-07-16T11:17:09;21.90;1.00
16384;DHT22;8301;51.440;6.610;2023-07-16T11:19:36;21.80;1.00
16384;DHT22;8301;51.440;6.610;2023-07-16T11:22:04;21.80;1.00
16384;DHT22;8301;51.440;6.610;2023-07-16T11:24:41;21.80;1.00
16384;DHT22;8301;51.440;6.610;2023-07-16T11:27:27;21.90;1.00
16384;DHT22;8301;51.440;6.610;2023-07-16T11:29:56;21.90;1.00
16384;DHT22;8301;51.440;6.610;2023-07-16T11:32:27;22.40;1.00
16384;DHT22;8301;51.440;6.610;2023-07-16T11:34:54;22.80;1.00
16384;DHT22;8301;51.440;6.610;2023-07-16T11:37:21;22.80;1.00
16384;DHT22;8301;51.440;6.610;2023-07-16T11:39:49;22.70;1.00
16384;DHT22;8301;51.440;6.610;2023-07-16T11:42:50;22.30;1.00
16384;DHT22;8301;51.440;6.610;2023-07-16T11:44:50;22.10;1.00
16384;DHT22;8301;51.440;6.610;2023-07-16T11:47:17;21.80;1.00
16384;DHT22;8301;51.440;6.610;2023-07-16T11:49:48;22.00;1.00
16384;DHT22;8301;51.440;6.610;2023-07-16T11:52:22;22.00;1.00
16384;DHT22;8301;51.440;6.610;2023-07-16T11:54:51;22.00;1.00
16384;DHT22;8301;51.440;6.610;2023-07-16T11:57:17;22.10;1.00
16384;DHT22;8301;51.440;6.610;2023-07-16T11:59:44;22.00;1.00
16384;DHT22;8301;51.440;6.610;2023-07-16T12:02:11;21.80;1.00
16384;DHT22;8301;51.440;6.610;2023-07-16T12:04:40;21.80;1.00
16384;DHT22;8301;51.440;6.610;2023-07-16T12:07:07;22.10;1.00
16384;DHT22;8301;51.440;6.610;2023-07-16T12:09:34;22.40;1.00
16384;DHT22;8301;51.440;6.610;2023-07-16T12:12:01;22.50;1.00
16384;DHT22;8301;51.440;6.610;2023-07-16T12:14:28;22.40;1.00
16384;DHT22;8301;51.440;6.610;2023-07-16T12:16:55;22.20;1.00
16384;DHT22;8301;51.440;6.610;2023-07-16T12:19:28;22.10;1.00
16384;DHT22;8301;51.440;6.610;2023-07-16T12:21:55;22.10;1.00
16384;DHT22;8301;51.440;6.610;2023-07-16T12:24:24;22.00;1.00
16384;DHT22;8301;51.440;6.610;2023-07-16T12:26:52;21.80;1.00
16384;DHT22;8301;51.440;6.610;2023-07-16T12:29:27;22.10;1.00
16384;DHT22;8301;51.440;6.610;2023-07-16T12:31:54;22.20;1.00
16384;DHT22;8301;51.440;6.610;2023-07-16T12:34:21;22.30;1.00
16384;DHT22;8301;51.440;6.610;2023-07-16T12:36:49;22.50;1.00
16384;DHT22;8301;51.440;6.610;2023-07-16T12:39:16;22.50;1.00
16384;DHT22;8301;51.440;6.610;2023-07-16T12:41:44;22.30;1.00
16384;DHT22;8301;51.440;6.610;2023-07-16T12:44:12;22.20;1.00
16384;DHT22;8301;51.440;6.610;2023-07-16T12:46:38;22.50;1.00
16384;DHT22;8301;51.440;6.610;2023-07-16T12:49:05;22.60;1.00
16384;DHT22;8301;51.440;6.610;2023-07-16T12:51:32;22.70;1.00
16384;DHT22;8301;51.440;6.610;2023-07-16T12:53:59;22.80;1.00
16384;DHT22;8301;51.440;6.610;2023-07-16T12:56:27;22.70;1.00
16384;DHT22;8301;51.440;6.610;2023-07-16T12:58:54;22.80;1.00
16384;DHT22;8301;51.440;6.610;2023-07-16T13:01:21;22.70;1.00
16384;DHT22;8301;51.440;6.610;2023-07-16T13:03:48;22.90;1.00
16384;DHT22;8301;51.440;6.610;2023-07-16T13:06:15;23.40;1.00
16384;DHT22;8301;51.440;6.610;2023-07-16T13:08:41;23.40;1.00
16384;DHT22;8301;51.440;6.610;2023-07-16T13:11:08;23.50;1.00
16384;DHT22;8301;51.440;6.610;2023-07-16T13:13:35;23.50;1.00
16384;DHT22;8301;51.440;6.610;2023-07-16T13:16:02;23.50;1.00
16384;DHT22;8301;51.440;6.610;2023-07-16T13:18:29;23.60;1.00
16384;DHT22;8301;51.440;6.610;2023-07-16T13:23:22;23.80;1.00
16384;DHT22;8301;51.440;6.610;2023-07-16T13:25:49;23.90;1.00
16384;DHT22;8301;51.440;6.610;2023-07-16T13:28:19;23.90;1.00
16384;DHT22;8301;51.440;6.610;2023-07-16T13:30:47;23.80;1.00
16384;DHT22;8301;51.440;6.610;2023-07-16T13:33:13;24.00;1.00
16384;DHT22;8301;51.440;6.610;2023-07-16T13:35:41;24.00;1.00
16384;DHT22;8301;51.440;6.610;2023-07-16T13:38:08;24.20;1.00
16384;DHT22;8301;51.440;6.610;2023-07-16T13:40:35;24.30;1.00
16384;DHT22;8301;51.440;6.610;2023-07-16T13:43:02;24.40;1.00
16384;DHT22;8301;51.440;6.610;2023-07-16T13:45:29;24.20;1.00
16384;DHT22;8301;51.440;6.610;2023-07-16T13:47:56;24.30;1.00
16384;DHT22;8301;51.440;6.610;2023-07-16T13:50:23;24.70;1.00
16384;DHT22;8301;51.440;6.610;2023-07-16T13:52:50;24.70;1.00
16384;DHT22;8301;51.440;6.610;2023-07-16T13:55:16;24.60;1.00
16384;DHT22;8301;51.440;6.610;2023-07-16T13:57:43;24.60;1.00
16384;DHT22;8301;51.440;6.610;2023-07-16T14:00:11;24.40;1.00
16384;DHT22;8301;51.440;6.610;2023-07-16T14:02:38;24.20;1.00
16384;DHT22;8301;51.440;6.610;2023-07-16T14:05:05;24.40;1.00
16384;DHT22;8301;51.440;6.610;2023-07-16T14:07:33;24.50;1.00
16384;DHT22;8301;51.440;6.610;2023-07-16T14:10:00;24.50;1.00
16384;DHT22;8301;51.440;6.610;2023-07-16T14:12:31;24.80;1.00
16384;DHT22;8301;51.440;6.610;2023-07-16T14:14:59;24.70;1.00
16384;DHT22;8301;51.440;6.610;2023-07-16T14:17:26;24.90;1.00
16384;DHT22;8301;51.440;6.610;2023-07-16T14:19:52;24.70;1.00
16384;DHT22;8301;51.440;6.610;2023-07-16T14:22:19;25.00;1.00
16384;DHT22;8301;51.440;6.610;2023-07-16T14:24:48;24.70;1.00
16384;DHT22;8301;51.440;6.610;2023-07-16T14:27:16;24.30;1.00
16384;DHT22;8301;51.440;6.610;2023-07-16T14:29:45;24.40;1.00
16384;DHT22;8301;51.440;6.610;2023-07-16T14:32:12;24.40;1.00
16384;DHT22;8301;51.440;6.610;2023-07-16T14:34:39;24.20;1.00
16384;DHT22;8301;51.440;6.610;2023-07-16T14:37:06;24.20;1.00
16384;DHT22;8301;51.440;6.610;2023-07-16T14:39:33;24.20;1.00
16384;DHT22;8301;51.440;6.610;2023-07-16T14:41:59;24.50;1.00
16384;DHT22;8301;51.440;6.610;2023-07-16T14:44:28;24.70;1.00
16384;DHT22;8301;51.440;6.610;2023-07-16T14:46:55;24.40;1.00
16384;DHT22;8301;51.440;6.610;2023-07-16T14:49:21;23.90;1.00
16384;DHT22;8301;51.440;6.610;2023-07-16T14:51:48;24.10;1.00
16384;DHT22;8301;51.440;6.610;2023-07-16T14:54:15;24.20;1.00
16384;DHT22;8301;51.440;6.610;2023-07-16T14:56:42;24.60;1.00
16384;DHT22;8301;51.440;6.610;2023-07-16T14:59:09;24.80;1.00
16384;DHT22;8301;51.440;6.610;2023-07-16T15:01:35;25.00;1.00
16384;DHT22;8301;51.440;6.610;2023-07-16T15:04:02;25.20;1.00
16384;DHT22;8301;51.440;6.610;2023-07-16T15:06:30;25.20;1.00
16384;DHT22;8301;51.440;6.610;2023-07-16T15:08:57;25.00;1.00
16384;DHT22;8301;51.440;6.610;2023-07-16T15:11:24;24.90;1.00
16384;DHT22;8301;51.440;6.610;2023-07-16T15:13:51;24.60;1.00
16384;DHT22;8301;51.440;6.610;2023-07-16T15:16:18;24.20;1.00
16384;DHT22;8301;51.440;6.610;2023-07-16T15:18:46;24.10;1.00
16384;DHT22;8301;51.440;6.610;2023-07-16T15:21:14;24.10;1.00
16384;DHT22;8301;51.440;6.610;2023-07-16T15:23:43;24.10;1.00
16384;DHT22;8301;51.440;6.610;2023-07-16T15:26:11;24.10;1.00
16384;DHT22;8301;51.440;6.610;2023-07-16T15:28:38;24.20;1.00
16384;DHT22;8301;51.440;6.610;2023-07-16T15:31:07;24.30;1.00
16384;DHT22;8301;51.440;6.610;2023-07-16T15:33:34;24.40;1.00
16384;DHT22;8301;51.440;6.610;2023-07-16T15:36:01;24.40;1.00
16384;DHT22;8301;51.440;6.610;2023-07-16T15:38:29;24.40;1.00
16384;DHT22;8301;51.440;6.610;2023-07-16T15:40:56;24.30;1.00
16384;DHT22;8301;51.440;6.610;2023-07-16T15:43:23;24.40;1.00
16384;DHT22;8301;51.440;6.610;2023-07-16T15:45:52;24.40;1.00
16384;DHT22;8301;51.440;6.610;2023-07-16T15:48:18;24.00;1.00
16384;DHT22;8301;51.440;6.610;2023-07-16T15:50:45;23.90;1.00
16384;DHT22;8301;51.440;6.610;2023-07-16T15:53:12;23.90;1.00
16384;DHT22;8301;51.440;6.610;2023-07-16T15:55:57;23.90;1.00
16384;DHT22;8301;51.440;6.610;2023-07-16T15:58:24;23.70;1.00
16384;DHT22;8301;51.440;6.610;2023-07-16T16:00:51;23.70;1.00
16384;DHT22;8301;51.440;6.610;2023-07-16T16:03:18;23.60;1.00
16384;DHT22;8301;51.440;6.610;2023-07-16T16:05:45;23.70;1.00
16384;DHT22;8301;51.440;6.610;2023-07-16T16:08:21;23.70;1.00
16384;DHT22;8301;51.440;6.610;2023-07-16T16:10:49;23.70;1.00
16384;DHT22;8301;51.440;6.610;2023-07-16T16:13:17;23.80;1.00
16384;DHT22;8301;51.440;6.610;2023-07-16T16:15:44;23.60;1.00